Time;durP1;ratioP1;P1;durP2;ratioP2;P2;SDS_P1;SDS_P2;PMS_P1;PMS_P2;Temp;Humidity;BMP_temperature;BMP_pressure;BME280_temperature;BME280_humidity;BME280_pressure;Samples;Min_cycle;Max_cycle;Signal;HPM_P1;HPM_P2
2021/10/16 00:02:09;;;;;;;5.72;2.80;;;9.10;94.90;;;;;;5023987;28;20505;-59
2021/10/16 00:04:36;;;;;;;10.75;3.05;;;9.10;94.50;;;;;;5023868;28;20046;-58
2021/10/16 00:07:02;;;;;;;11.45;3.33;;;9.00;94.90;;;;;;5025228;28;20172;-58
2021/10/16 00:09:29;;;;;;;8.18;2.70;;;9.00;94.80;;;;;;5025333;28;20465;-58
2021/10/16 00:11:56;;;;;;;5.53;2.50;;;9.00;94.60;;;;;;5024958;28;20132;-58
2021/10/16 00:14:23;;;;;;;10.00;3.30;;;9.00;94.40;;;;;;5024553;28;20141;-58
2021/10/16 00:16:49;;;;;;;9.43;3.60;;;8.90;94.60;;;;;;5024424;28;20537;-58
2021/10/16 00:19:16;;;;;;;6.93;3.08;;;8.90;94.70;;;;;;5025334;28;20154;-58
2021/10/16 00:21:43;;;;;;;9.20;3.17;;;8.80;94.90;;;;;;5024797;28;20161;-58
2021/10/16 00:24:10;;;;;;;7.22;3.35;;;8.80;94.90;;;;;;5024995;28;20136;-59
2021/10/16 00:26:37;;;;;;;9.75;4.35;;;8.80;94.90;;;;;;5023776;28;20137;-58
2021/10/16 00:29:03;;;;;;;8.75;3.38;;;8.70;95.10;;;;;;5024261;28;20122;-62
2021/10/16 00:31:30;;;;;;;12.25;4.53;;;8.70;95.00;;;;;;5024891;28;20477;-59
2021/10/16 00:33:57;;;;;;;9.52;3.42;;;8.70;95.00;;;;;;5024439;28;20496;-59
2021/10/16 00:36:24;;;;;;;7.53;3.47;;;8.70;95.10;;;;;;5024465;28;20144;-58
2021/10/16 00:38:50;;;;;;;7.35;2.90;;;8.60;95.10;;;;;;5024545;28;20085;-59
2021/10/16 00:41:17;;;;;;;7.00;3.55;;;8.60;95.20;;;;;;5024899;28;20208;-58
2021/10/16 00:43:44;;;;;;;7.95;3.20;;;8.60;95.30;;;;;;5022858;28;20160;-59
2021/10/16 00:46:11;;;;;;;13.18;3.72;;;8.60;95.50;;;;;;5024718;28;20092;-59
2021/10/16 00:48:38;;;;;;;4.82;2.85;;;8.60;95.50;;;;;;5023426;28;20045;-58
2021/10/16 00:51:04;;;;;;;9.02;3.40;;;8.60;95.40;;;;;;5024725;28;20180;-59
2021/10/16 00:53:31;;;;;;;8.30;4.25;;;8.50;95.40;;;;;;5022847;28;20088;-59
2021/10/16 00:55:58;;;;;;;7.38;3.50;;;8.50;95.30;;;;;;5023068;28;20531;-58
2021/10/16 00:58:24;;;;;;;9.40;3.90;;;8.40;95.30;;;;;;5021692;28;20085;-58
2021/10/16 01:00:51;;;;;;;13.95;4.20;;;8.40;95.30;;;;;;5007081;28;20084;-58
2021/10/16 01:03:19;;;;;;;6.75;3.60;;;8.30;95.40;;;;;;5020506;28;20131;-58
2021/10/16 01:05:46;;;;;;;8.38;3.42;;;8.30;95.70;;;;;;5003877;28;20121;-58
2021/10/16 01:08:15;;;;;;;8.88;3.30;;;8.30;95.80;;;;;;5019690;28;20731;-58
2021/10/16 01:10:42;;;;;;;9.38;3.45;;;8.30;95.70;;;;;;5019995;28;20084;-58
2021/10/16 01:13:09;;;;;;;9.57;3.88;;;8.30;95.90;;;;;;5026480;28;20073;-58
2021/10/16 01:15:35;;;;;;;11.70;4.50;;;8.40;96.00;;;;;;5004721;28;20077;-59
2021/10/16 01:18:02;;;;;;;8.57;3.60;;;8.40;95.90;;;;;;5020264;28;20084;-58
2021/10/16 01:20:29;;;;;;;6.40;3.30;;;8.40;95.90;;;;;;5025277;28;20049;-58
2021/10/16 01:22:56;;;;;;;8.52;3.03;;;8.50;95.80;;;;;;5024922;28;20084;-58
2021/10/16 01:25:23;;;;;;;7.70;2.95;;;8.60;95.70;;;;;;5011594;28;20088;-59
2021/10/16 01:27:50;;;;;;;7.43;3.30;;;8.60;95.80;;;;;;5020282;28;20069;-59
2021/10/16 01:30:19;;;;;;;7.28;3.25;;;8.60;95.70;;;;;;5021977;28;20077;-59
2021/10/16 01:32:46;;;;;;;9.55;3.45;;;8.70;95.40;;;;;;5024428;28;20142;-59
2021/10/16 01:35:13;;;;;;;9.93;3.50;;;8.70;95.60;;;;;;5024230;28;20137;-59
2021/10/16 01:37:44;;;;;;;8.65;4.13;;;8.80;95.70;;;;;;5024843;28;20128;-59
2021/10/16 01:40:11;;;;;;;8.60;3.42;;;8.80;95.80;;;;;;5039763;28;20049;-59
2021/10/16 01:42:42;;;;;;;6.82;2.97;;;8.80;95.70;;;;;;5024040;28;20132;-59
2021/10/16 01:45:18;;;;;;;10.10;4.05;;;8.80;95.80;;;;;;5023618;28;20092;-60
2021/10/16 01:47:48;;;;;;;7.90;3.17;;;8.80;95.80;;;;;;5024300;28;20088;-59
2021/10/16 01:50:15;;;;;;;7.75;3.67;;;8.80;95.80;;;;;;5025015;28;20484;-59
2021/10/16 01:52:42;;;;;;;8.63;3.70;;;8.80;95.60;;;;;;5024107;28;20085;-59
2021/10/16 01:55:09;;;;;;;9.25;3.65;;;8.80;95.70;;;;;;5023882;28;20525;-59
2021/10/16 01:57:36;;;;;;;9.00;3.20;;;8.80;95.80;;;;;;5040155;28;20136;-59
2021/10/16 02:00:03;;;;;;;9.15;3.70;;;8.80;95.90;;;;;;5025003;28;20129;-59
2021/10/16 02:02:30;;;;;;;8.13;3.75;;;8.80;95.80;;;;;;5023558;28;20160;-59
2021/10/16 02:04:57;;;;;;;9.73;4.15;;;8.90;95.80;;;;;;5024659;28;20192;-60
2021/10/16 02:07:24;;;;;;;8.07;3.65;;;8.90;95.70;;;;;;5024796;28;20508;-59
2021/10/16 02:09:50;;;;;;;8.32;3.90;;;9.00;95.80;;;;;;5025228;28;20154;-59
2021/10/16 02:12:17;;;;;;;8.45;3.38;;;8.90;95.60;;;;;;5024313;28;20085;-59
2021/10/16 02:14:44;;;;;;;6.82;3.78;;;9.00;95.70;;;;;;5024051;28;20073;-59
2021/10/16 02:17:11;;;;;;;9.45;3.58;;;9.00;95.50;;;;;;5023776;28;20089;-60
2021/10/16 02:19:37;;;;;;;8.70;3.05;;;8.90;95.20;;;;;;5024913;28;20507;-59
2021/10/16 02:22:04;;;;;;;6.05;3.83;;;8.80;95.30;;;;;;5024183;28;20100;-59
2021/10/16 02:24:31;;;;;;;6.82;3.20;;;8.70;95.50;;;;;;5024871;28;20140;-59
2021/10/16 02:26:57;;;;;;;6.40;2.45;;;8.60;95.60;;;;;;5024350;28;20164;-59
2021/10/16 02:29:24;;;;;;;10.45;3.33;;;8.50;95.70;;;;;;5024203;28;20580;-60
2021/10/16 02:31:51;;;;;;;8.07;3.42;;;8.50;95.80;;;;;;5023766;28;20133;-59
2021/10/16 02:34:18;;;;;;;9.75;3.63;;;8.40;96.00;;;;;;5023809;28;20049;-59
2021/10/16 02:36:44;;;;;;;11.85;3.55;;;8.40;95.90;;;;;;5024692;28;20049;-59
2021/10/16 02:39:11;;;;;;;6.53;3.47;;;8.40;95.80;;;;;;5023848;28;20140;-59
2021/10/16 02:41:38;;;;;;;7.32;3.25;;;8.40;95.70;;;;;;5023575;28;20453;-58
2021/10/16 02:44:05;;;;;;;10.35;3.45;;;8.30;95.80;;;;;;5023502;28;20702;-59
2021/10/16 02:46:32;;;;;;;7.97;3.50;;;8.30;95.90;;;;;;5024112;28;20111;-59
2021/10/16 02:48:58;;;;;;;10.95;3.90;;;8.30;95.90;;;;;;5023900;28;20390;-59
2021/10/16 02:51:25;;;;;;;11.52;3.15;;;8.40;96.10;;;;;;5024479;28;20128;-59
2021/10/16 02:53:52;;;;;;;7.88;3.28;;;8.30;96.00;;;;;;5023241;28;20480;-59
2021/10/16 02:56:18;;;;;;;9.18;3.03;;;8.30;96.10;;;;;;5023884;28;20133;-59
2021/10/16 02:58:46;;;;;;;9.07;3.65;;;8.30;96.00;;;;;;5023297;28;20123;-59
2021/10/16 03:01:13;;;;;;;10.23;3.40;;;8.30;96.00;;;;;;5024219;28;20061;-59
2021/10/16 03:03:40;;;;;;;8.25;3.28;;;8.30;95.90;;;;;;5023408;28;20037;-59
2021/10/16 03:06:07;;;;;;;12.23;3.20;;;8.30;96.20;;;;;;5024088;28;20041;-59
2021/10/16 03:08:33;;;;;;;8.60;4.05;;;8.20;96.00;;;;;;5023321;28;20516;-59
2021/10/16 03:11:00;;;;;;;7.65;2.55;;;8.20;96.00;;;;;;5023918;28;20084;-59
2021/10/16 03:13:27;;;;;;;6.93;2.95;;;8.20;96.10;;;;;;5022662;28;20049;-59
2021/10/16 03:15:54;;;;;;;7.43;3.00;;;8.20;95.90;;;;;;5024256;28;21020;-59
2021/10/16 03:18:20;;;;;;;5.40;2.55;;;8.20;96.30;;;;;;5022246;28;20060;-59
2021/10/16 03:20:47;;;;;;;6.35;2.95;;;8.30;96.50;;;;;;5024114;28;20072;-60
2021/10/16 03:23:14;;;;;;;8.82;3.90;;;8.30;96.10;;;;;;5023272;28;20092;-59
2021/10/16 03:25:41;;;;;;;5.78;2.72;;;8.20;96.10;;;;;;5023813;28;20140;-59
2021/10/16 03:28:08;;;;;;;7.90;3.03;;;8.30;96.10;;;;;;5023216;28;20481;-58
2021/10/16 03:30:34;;;;;;;8.85;3.17;;;8.30;96.10;;;;;;5023651;28;20050;-59
2021/10/16 03:33:01;;;;;;;6.47;2.78;;;8.30;96.00;;;;;;5022587;28;20133;-59
2021/10/16 03:35:28;;;;;;;14.18;3.42;;;8.30;96.00;;;;;;5022021;28;20088;-59
2021/10/16 03:37:55;;;;;;;9.52;3.33;;;8.30;96.10;;;;;;5023251;28;20128;-58
2021/10/16 03:40:21;;;;;;;10.07;3.17;;;8.30;96.10;;;;;;5023783;28;20049;-59
2021/10/16 03:42:48;;;;;;;8.10;2.60;;;8.30;96.40;;;;;;5023469;28;20144;-59
2021/10/16 03:45:15;;;;;;;10.27;2.67;;;8.40;96.40;;;;;;5022738;28;20068;-59
2021/10/16 03:47:42;;;;;;;6.65;3.28;;;8.40;96.40;;;;;;5023190;28;20544;-59
2021/10/16 03:50:08;;;;;;;7.40;2.92;;;8.50;96.20;;;;;;5023943;28;20141;-58
2021/10/16 03:52:35;;;;;;;9.32;3.00;;;8.50;96.30;;;;;;5023062;28;20088;-59
2021/10/16 03:55:02;;;;;;;5.80;2.22;;;8.60;96.20;;;;;;5021815;28;20089;-59
2021/10/16 03:57:29;;;;;;;9.77;2.60;;;8.60;96.10;;;;;;5023186;28;20089;-59
2021/10/16 03:59:55;;;;;;;5.20;2.42;;;8.60;96.20;;;;;;5022906;28;20128;-59
2021/10/16 04:02:23;;;;;;;6.63;3.08;;;8.70;96.20;;;;;;5021745;28;20461;-59
2021/10/16 04:04:49;;;;;;;9.38;3.13;;;8.70;96.10;;;;;;5021281;28;20485;-59
2021/10/16 04:07:16;;;;;;;8.75;2.58;;;8.80;96.00;;;;;;5021592;28;20754;-59
2021/10/16 04:09:43;;;;;;;12.57;3.78;;;8.80;95.90;;;;;;5023166;28;20106;-60
2021/10/16 04:12:10;;;;;;;8.20;2.88;;;8.80;96.00;;;;;;5023332;28;20128;-59
2021/10/16 04:14:36;;;;;;;8.45;3.33;;;8.80;96.00;;;;;;5022391;28;20402;-59
2021/10/16 04:17:03;;;;;;;9.32;2.83;;;8.80;96.00;;;;;;5021692;28;20144;-59
2021/10/16 04:19:30;;;;;;;8.73;2.72;;;8.80;95.90;;;;;;5023204;28;20088;-59
2021/10/16 04:21:57;;;;;;;10.43;3.15;;;8.90;96.00;;;;;;5023108;28;20115;-59
2021/10/16 04:24:24;;;;;;;10.82;3.00;;;8.90;96.00;;;;;;5023379;28;20125;-59
2021/10/16 04:26:50;;;;;;;7.15;3.10;;;8.80;96.10;;;;;;5022844;28;20587;-58
2021/10/16 04:29:17;;;;;;;7.88;2.80;;;8.80;96.10;;;;;;5025025;28;20633;-58
2021/10/16 04:31:44;;;;;;;10.88;4.07;;;8.90;95.90;;;;;;5025512;28;20065;-58
2021/10/16 04:34:11;;;;;;;7.78;2.85;;;9.00;96.00;;;;;;5026742;28;20081;-58
2021/10/16 04:36:37;;;;;;;9.15;3.60;;;9.00;95.90;;;;;;5026664;28;20587;-60
2021/10/16 04:39:05;;;;;;;13.43;3.45;;;9.10;95.80;;;;;;5026049;28;20064;-58
2021/10/16 04:41:33;;;;;;;11.27;3.70;;;9.10;95.80;;;;;;5026375;28;20133;-59
2021/10/16 04:43:59;;;;;;;10.50;3.08;;;9.20;95.90;;;;;;5024370;28;20137;-58
2021/10/16 04:46:26;;;;;;;8.23;2.80;;;9.20;95.90;;;;;;5026847;28;20080;-58
2021/10/16 04:48:53;;;;;;;11.60;3.95;;;9.20;95.90;;;;;;5024504;28;20133;-59
2021/10/16 04:51:20;;;;;;;8.70;2.97;;;9.20;95.90;;;;;;5026331;28;20520;-58
2021/10/16 04:53:47;;;;;;;7.95;2.63;;;9.30;95.90;;;;;;5026210;28;20077;-59
2021/10/16 04:56:13;;;;;;;9.40;3.20;;;9.30;95.80;;;;;;5026644;28;20096;-59
2021/10/16 04:58:40;;;;;;;6.53;2.63;;;9.40;95.90;;;;;;5024979;28;20160;-59
2021/10/16 05:01:07;;;;;;;8.15;2.80;;;9.40;95.80;;;;;;5026077;28;20145;-58
2021/10/16 05:03:34;;;;;;;7.05;3.25;;;9.40;95.80;;;;;;5022590;28;20389;-59
2021/10/16 05:06:00;;;;;;;11.07;3.58;;;9.40;96.00;;;;;;5024305;28;20125;-58
2021/10/16 05:08:28;;;;;;;8.68;2.78;;;9.40;96.00;;;;;;5024134;28;20124;-59
2021/10/16 05:10:55;;;;;;;12.07;3.58;;;9.40;95.90;;;;;;5024621;28;20061;-59
2021/10/16 05:13:21;;;;;;;6.72;2.70;;;9.40;95.90;;;;;;5022566;28;20084;-58
2021/10/16 05:15:48;;;;;;;9.93;3.47;;;9.40;95.90;;;;;;5023716;28;20046;-58
2021/10/16 05:18:15;;;;;;;7.18;3.03;;;9.40;96.10;;;;;;5022421;28;20136;-59
2021/10/16 05:20:42;;;;;;;9.32;2.85;;;9.40;96.00;;;;;;5024339;28;20096;-59
2021/10/16 05:23:09;;;;;;;11.45;2.92;;;9.30;96.00;;;;;;5023196;28;20537;-58
2021/10/16 05:25:35;;;;;;;7.20;2.78;;;9.40;95.90;;;;;;5023913;28;20084;-58
2021/10/16 05:28:02;;;;;;;7.95;3.13;;;9.40;95.90;;;;;;5024024;28;20088;-59
2021/10/16 05:30:29;;;;;;;9.55;3.90;;;9.40;95.80;;;;;;5023072;28;20085;-58
2021/10/16 05:32:56;;;;;;;11.15;3.28;;;9.40;96.00;;;;;;5023105;28;20378;-59
2021/10/16 05:35:23;;;;;;;13.95;3.72;;;9.50;95.90;;;;;;5023409;28;20073;-58
2021/10/16 05:37:50;;;;;;;8.95;3.00;;;9.50;96.10;;;;;;5024194;28;20096;-58
2021/10/16 05:40:18;;;;;;;11.60;3.60;;;9.50;96.00;;;;;;5022693;28;20182;-58
2021/10/16 05:42:45;;;;;;;9.02;2.70;;;9.60;96.10;;;;;;5022718;28;20049;-58
2021/10/16 05:45:11;;;;;;;9.85;3.13;;;9.60;96.00;;;;;;5023001;28;20150;-58
2021/10/16 05:47:38;;;;;;;9.90;2.72;;;9.60;96.00;;;;;;5022852;28;20136;-58
2021/10/16 05:50:05;;;;;;;9.15;2.20;;;9.70;96.20;;;;;;5022656;28;20224;-58
2021/10/16 05:52:32;;;;;;;6.85;2.78;;;9.70;96.20;;;;;;5022024;28;20056;-58
2021/10/16 05:54:59;;;;;;;15.15;3.38;;;9.70;96.30;;;;;;5021664;28;20045;-58
2021/10/16 05:57:26;;;;;;;9.73;2.90;;;9.80;96.30;;;;;;5021875;28;20228;-58
2021/10/16 05:59:53;;;;;;;8.10;3.17;;;9.80;96.30;;;;;;5020921;28;20136;-57
2021/10/16 06:02:19;;;;;;;9.57;2.90;;;9.80;96.20;;;;;;5020625;28;20547;-59
2021/10/16 06:04:46;;;;;;;8.80;2.80;;;9.80;96.30;;;;;;5020678;28;20136;-59
2021/10/16 06:07:13;;;;;;;7.93;2.65;;;9.90;96.10;;;;;;5019697;28;20057;-59
2021/10/16 06:09:40;;;;;;;13.40;2.95;;;9.90;96.10;;;;;;5018633;28;20084;-58
2021/10/16 06:12:06;;;;;;;9.68;2.83;;;9.90;95.90;;;;;;5018834;28;20167;-58
2021/10/16 06:14:33;;;;;;;8.60;2.75;;;9.90;96.00;;;;;;5017300;28;20419;-58
2021/10/16 06:17:00;;;;;;;7.90;3.00;;;9.90;96.10;;;;;;5019764;28;20124;-58
2021/10/16 06:19:27;;;;;;;14.52;3.17;;;9.90;96.10;;;;;;5019414;28;20129;-59
2021/10/16 06:21:53;;;;;;;7.20;2.92;;;10.00;95.90;;;;;;5018893;28;20465;-59
2021/10/16 06:24:20;;;;;;;14.70;3.33;;;10.00;95.80;;;;;;5018663;28;20144;-59
2021/10/16 06:26:47;;;;;;;6.22;2.42;;;10.10;96.00;;;;;;5019241;28;20129;-59
2021/10/16 06:29:13;;;;;;;11.23;2.92;;;10.10;96.00;;;;;;5018690;28;20584;-59
2021/10/16 06:31:40;;;;;;;10.32;2.65;;;10.10;96.10;;;;;;5017796;28;20133;-58
2021/10/16 06:34:07;;;;;;;6.72;2.20;;;10.10;96.20;;;;;;5018481;28;20405;-59
2021/10/16 06:36:34;;;;;;;7.75;2.92;;;10.10;96.10;;;;;;5019453;28;20165;-59
2021/10/16 06:39:01;;;;;;;7.55;2.15;;;10.10;96.30;;;;;;5019372;28;20160;-59
2021/10/16 06:41:27;;;;;;;8.38;2.97;;;10.10;96.20;;;;;;5018095;28;20053;-58
2021/10/16 06:43:54;;;;;;;8.30;3.05;;;10.20;96.20;;;;;;5017937;28;20419;-59
2021/10/16 06:46:22;;;;;;;8.68;2.28;;;10.30;96.10;;;;;;5018849;28;20046;-59
2021/10/16 06:48:49;;;;;;;7.63;3.00;;;10.30;96.20;;;;;;5017262;28;20253;-59
2021/10/16 06:51:16;;;;;;;9.70;2.80;;;10.40;96.10;;;;;;5018581;28;20164;-58
2021/10/16 06:53:42;;;;;;;12.50;3.63;;;10.40;96.10;;;;;;5017676;28;20068;-58
2021/10/16 06:56:09;;;;;;;14.73;7.40;;;10.50;96.10;;;;;;5016707;28;20132;-59
2021/10/16 06:58:36;;;;;;;14.45;4.60;;;10.50;96.10;;;;;;5017463;28;20145;-59
2021/10/16 07:01:02;;;;;;;10.48;4.30;;;10.50;96.30;;;;;;5018112;28;20049;-59
2021/10/16 07:03:29;;;;;;;14.13;5.78;;;10.50;96.30;;;;;;5018246;28;20049;-59
2021/10/16 07:05:57;;;;;;;8.35;3.20;;;10.60;96.50;;;;;;5018261;28;20064;-58
2021/10/16 07:08:29;;;;;;;8.48;3.35;;;10.60;96.10;;;;;;5016546;28;20046;-59
2021/10/16 07:10:56;;;;;;;14.32;5.25;;;10.70;96.20;;;;;;5018537;28;20053;-59
2021/10/16 07:13:24;;;;;;;11.45;4.35;;;10.80;96.20;;;;;;5017174;28;20097;-60
2021/10/16 07:15:51;;;;;;;9.07;2.60;;;10.80;96.20;;;;;;5019079;28;20136;-59
2021/10/16 07:18:18;;;;;;;10.85;2.83;;;10.90;96.30;;;;;;5017587;28;20136;-59
2021/10/16 07:20:45;;;;;;;13.25;5.20;;;10.90;96.00;;;;;;5018148;28;20140;-60
2021/10/16 07:23:31;;;;;;;15.15;7.25;;;11.00;96.20;;;;;;5017703;28;20059;-60
2021/10/16 07:25:58;;;;;;;10.55;6.20;;;11.00;96.00;;;;;;5033375;28;20366;-59
2021/10/16 07:28:25;;;;;;;10.18;4.40;;;11.10;96.00;;;;;;5017853;28;20164;-59
2021/10/16 07:30:52;;;;;;;8.63;3.60;;;11.20;96.00;;;;;;5018620;28;20148;-59
2021/10/16 07:33:19;;;;;;;11.30;3.85;;;11.20;95.90;;;;;;5017740;28;20481;-59
2021/10/16 07:35:46;;;;;;;16.90;10.65;;;11.30;95.90;;;;;;5017851;28;20097;-59
2021/10/16 07:38:13;;;;;;;13.20;7.60;;;11.30;95.90;;;;;;5017925;28;20140;-58
2021/10/16 07:40:41;;;;;;;17.90;8.07;;;11.30;96.00;;;;;;5017827;28;20600;-59
2021/10/16 07:43:08;;;;;;;14.82;7.10;;;11.40;96.00;;;;;;5016529;28;20264;-58
2021/10/16 07:45:35;;;;;;;9.18;4.35;;;11.40;96.00;;;;;;5017695;28;20132;-59
2021/10/16 07:48:02;;;;;;;6.68;2.30;;;11.40;96.00;;;;;;5017260;28;20148;-59
2021/10/16 07:50:28;;;;;;;9.18;3.20;;;11.50;95.90;;;;;;5016564;28;20161;-59
2021/10/16 07:52:55;;;;;;;5.90;2.35;;;11.50;95.90;;;;;;5018582;28;20084;-59
2021/10/16 07:55:22;;;;;;;6.18;2.10;;;11.50;96.10;;;;;;5016610;28;20037;-59
2021/10/16 07:57:49;;;;;;;5.40;2.08;;;11.60;96.10;;;;;;5018077;28;20077;-59
2021/10/16 08:00:15;;;;;;;7.82;3.30;;;11.60;96.10;;;;;;5017976;28;20575;-59
2021/10/16 08:02:42;;;;;;;7.90;2.03;;;11.70;96.00;;;;;;5017805;28;20580;-59
2021/10/16 08:05:13;;;;;;;8.43;2.42;;;11.70;96.00;;;;;;5022433;28;20127;-58
2021/10/16 08:07:41;;;;;;;11.45;2.47;;;11.80;95.90;;;;;;5022252;28;20045;-59
2021/10/16 08:10:11;;;;;;;7.80;2.58;;;11.80;95.90;;;;;;5021355;28;20549;-58
2021/10/16 08:12:38;;;;;;;8.45;2.30;;;11.80;95.70;;;;;;5021058;28;20049;-58
2021/10/16 08:15:06;;;;;;;6.85;2.15;;;11.90;95.80;;;;;;5021610;28;20598;-59
2021/10/16 08:17:32;;;;;;;7.88;2.15;;;11.90;95.90;;;;;;5021994;28;20244;-59
2021/10/16 08:19:59;;;;;;;6.60;2.60;;;12.00;95.70;;;;;;5022226;28;20055;-59
2021/10/16 08:22:28;;;;;;;7.15;2.25;;;12.10;95.50;;;;;;5022278;28;20591;-59
2021/10/16 08:24:55;;;;;;;4.80;2.15;;;12.20;95.70;;;;;;5022762;28;20586;-58
2021/10/16 08:27:22;;;;;;;7.15;2.35;;;12.30;95.60;;;;;;5018783;28;20042;-59
2021/10/16 08:29:49;;;;;;;6.20;2.22;;;12.30;95.70;;;;;;5021140;28;20059;-59
2021/10/16 08:32:17;;;;;;;9.30;3.17;;;12.40;95.70;;;;;;5019280;28;20441;-59
2021/10/16 08:34:46;;;;;;;12.73;3.38;;;12.50;95.60;;;;;;5019858;28;20324;-59
2021/10/16 08:37:13;;;;;;;11.18;4.13;;;12.60;95.40;;;;;;5020524;28;20458;-59
2021/10/16 08:39:40;;;;;;;8.55;4.00;;;12.70;95.00;;;;;;5019565;28;20219;-59
2021/10/16 08:42:07;;;;;;;12.95;7.63;;;12.70;94.80;;;;;;5020792;28;20160;-59
2021/10/16 08:44:34;;;;;;;11.18;4.28;;;12.80;94.90;;;;;;5019486;28;20053;-59
2021/10/16 08:47:01;;;;;;;5.25;2.90;;;13.00;94.70;;;;;;5020002;28;20106;-59
2021/10/16 08:49:30;;;;;;;10.18;3.00;;;13.00;94.50;;;;;;5022001;28;20124;-59
2021/10/16 08:51:58;;;;;;;7.40;2.50;;;13.10;94.40;;;;;;5023232;28;20072;-59
2021/10/16 08:54:25;;;;;;;7.97;3.00;;;13.20;94.30;;;;;;5019946;28;20128;-59
2021/10/16 08:56:52;;;;;;;10.48;3.22;;;13.30;94.00;;;;;;5020322;28;20168;-59
2021/10/16 08:59:19;;;;;;;6.38;2.72;;;13.40;93.80;;;;;;5021947;28;20071;-59
2021/10/16 09:01:58;;;;;;;8.15;2.10;;;13.40;93.90;;;;;;5020362;28;20054;-59
2021/10/16 09:04:26;;;;;;;7.63;2.58;;;13.40;93.60;;;;;;5018166;28;20073;-59
2021/10/16 09:06:53;;;;;;;5.63;2.20;;;13.40;93.80;;;;;;5036623;28;20456;-59
2021/10/16 09:09:29;;;;;;;13.60;2.72;;;13.50;93.80;;;;;;5020544;28;20119;-59
2021/10/16 09:11:56;;;;;;;5.80;2.40;;;13.50;93.60;;;;;;5019008;28;20133;-59
2021/10/16 09:14:27;;;;;;;6.22;2.35;;;13.50;93.60;;;;;;5019825;28;20101;-58
2021/10/16 09:16:58;;;;;;;7.30;2.30;;;13.50;93.50;;;;;;5021740;28;20426;-58
2021/10/16 09:19:26;;;;;;;8.50;2.03;;;13.60;93.30;;;;;;5022059;28;20084;-58
2021/10/16 09:21:55;;;;;;;9.00;3.42;;;13.60;93.30;;;;;;5021961;28;20148;-59
2021/10/16 09:24:34;;;;;;;7.15;2.70;;;13.60;93.20;;;;;;5020447;28;20207;-59
2021/10/16 09:27:09;;;;;;;10.02;2.38;;;13.60;93.10;;;;;;5021159;28;20449;-59
2021/10/16 09:29:44;;;;;;;7.72;2.80;;;13.60;93.40;;;;;;5031875;28;20049;-58
2021/10/16 09:32:18;;;;;;;10.75;2.55;;;13.60;93.50;;;;;;5020815;28;20216;-59
2021/10/16 09:34:46;;;;;;;10.82;2.80;;;13.60;93.30;;;;;;5021057;28;20053;-59
2021/10/16 09:37:18;;;;;;;11.98;3.25;;;13.60;93.50;;;;;;5018492;28;20288;-59
2021/10/16 09:39:47;;;;;;;9.35;2.20;;;13.50;94.10;;;;;;5019535;28;20092;-59
2021/10/16 09:42:16;;;;;;;17.27;6.18;;;13.50;94.20;;;;;;5017734;28;20475;-59
2021/10/16 09:44:44;;;;;;;7.97;3.17;;;13.50;94.60;;;;;;5019309;28;20045;-58
2021/10/16 09:47:15;;;;;;;11.07;4.68;;;13.40;94.80;;;;;;5017828;28;20054;-59
2021/10/16 09:49:50;;;;;;;9.02;3.30;;;13.30;95.30;;;;;;5018402;28;20049;-59
2021/10/16 09:52:18;;;;;;;8.60;2.72;;;13.30;95.80;;;;;;5020603;28;20144;-59
2021/10/16 09:54:47;;;;;;;9.00;2.83;;;13.20;95.70;;;;;;5016545;28;20092;-59
2021/10/16 09:57:15;;;;;;;12.52;2.63;;;13.20;95.90;;;;;;5017404;28;20045;-58
2021/10/16 09:59:42;;;;;;;8.95;2.88;;;13.20;96.20;;;;;;5018604;28;20576;-58
2021/10/16 10:02:10;;;;;;;6.82;2.28;;;13.20;96.20;;;;;;5019782;28;20041;-60
2021/10/16 10:04:39;;;;;;;11.02;2.58;;;13.20;96.40;;;;;;5020897;28;20509;-60
2021/10/16 10:07:08;;;;;;;8.40;2.25;;;13.20;96.30;;;;;;5021070;28;20068;-59
2021/10/16 10:09:38;;;;;;;8.60;2.28;;;13.20;96.50;;;;;;5021944;28;20108;-60
2021/10/16 10:12:05;;;;;;;6.55;3.05;;;13.20;96.60;;;;;;5021028;28;20134;-59
2021/10/16 10:14:32;;;;;;;8.40;2.70;;;13.20;96.80;;;;;;5024207;28;20493;-59
2021/10/16 10:17:06;;;;;;;7.95;2.45;;;13.10;96.70;;;;;;5023889;28;20087;-59
2021/10/16 10:19:40;;;;;;;11.10;2.70;;;13.10;96.90;;;;;;5031384;28;20504;-59
2021/10/16 10:22:18;;;;;;;8.80;2.50;;;13.00;96.80;;;;;;5014316;28;20053;-59
2021/10/16 10:24:50;;;;;;;9.52;2.95;;;12.90;96.90;;;;;;5022763;28;20059;-59
2021/10/16 10:27:20;;;;;;;15.00;3.45;;;12.90;97.30;;;;;;5021658;28;20517;-59
2021/10/16 10:29:49;;;;;;;7.50;3.45;;;12.80;97.40;;;;;;5023371;28;20077;-59
2021/10/16 10:32:35;;;;;;;11.38;4.60;;;12.70;97.90;;;;;;5022576;28;20088;-59
2021/10/16 10:35:08;;;;;;;9.55;4.60;;;12.70;98.70;;;;;;5039379;28;20195;-60
2021/10/16 10:37:39;;;;;;;12.35;3.72;;;12.60;98.90;;;;;;5038388;28;20517;-60
2021/10/16 10:40:15;;;;;;;9.80;4.05;;;12.60;98.90;;;;;;5024852;28;20049;-60
2021/10/16 10:42:43;;;;;;;9.15;3.88;;;12.60;99.30;;;;;;5023663;28;20454;-60
2021/10/16 10:45:31;;;;;;;15.93;5.47;;;12.60;99.30;;;;;;5020850;28;20148;-61
2021/10/16 10:48:08;;;;;;;10.80;4.65;;;12.80;99.70;;;;;;5020113;28;20069;-61
2021/10/16 10:50:40;;;;;;;12.82;5.00;;;12.80;99.10;;;;;;5024123;28;20088;-61
2021/10/16 10:53:09;;;;;;;10.13;4.55;;;12.80;98.90;;;;;;5023018;28;20132;-60
2021/10/16 10:55:52;;;;;;;11.75;3.67;;;12.90;98.90;;;;;;5024084;28;20128;-61
2021/10/16 10:58:19;;;;;;;9.90;3.58;;;13.00;99.00;;;;;;5022703;28;20051;-60
2021/10/16 11:00:54;;;;;;;10.25;3.47;;;13.10;98.60;;;;;;5023042;28;20091;-60
2021/10/16 11:03:33;;;;;;;14.15;3.72;;;13.20;98.90;;;;;;5016492;28;20428;-61
2021/10/16 11:06:09;;;;;;;11.50;3.38;;;13.40;98.70;;;;;;5038587;28;20505;-60
2021/10/16 11:08:36;;;;;;;8.93;3.58;;;13.60;98.40;;;;;;5005311;28;20077;-60
2021/10/16 11:11:03;;;;;;;8.73;3.80;;;13.80;98.20;;;;;;5023686;28;20121;-60
2021/10/16 11:13:33;;;;;;;12.93;5.35;;;14.00;97.90;;;;;;5021656;28;20163;-60
2021/10/16 11:16:04;;;;;;;8.50;3.00;;;14.30;97.60;;;;;;5025457;28;20300;-60
2021/10/16 11:18:31;;;;;;;7.85;3.47;;;14.50;97.00;;;;;;5024043;28;20152;-60
2021/10/16 11:21:03;;;;;;;8.02;3.30;;;14.60;96.90;;;;;;5025051;28;20494;-61
2021/10/16 11:23:29;;;;;;;9.70;3.70;;;14.80;96.70;;;;;;5023801;28;20310;-60
2021/10/16 11:26:08;;;;;;;9.25;3.17;;;15.00;96.50;;;;;;5025670;28;20126;-60
2021/10/16 11:28:36;;;;;;;10.30;3.85;;;15.10;96.60;;;;;;5021021;28;20080;-60
2021/10/16 11:31:04;;;;;;;5.47;3.38;;;15.30;96.10;;;;;;5023207;28;20176;-60
2021/10/16 11:33:32;;;;;;;10.50;3.40;;;15.50;95.60;;;;;;5022842;28;20141;-58
2021/10/16 11:36:00;;;;;;;13.10;4.20;;;15.60;95.60;;;;;;5024762;28;20054;-59
2021/10/16 11:38:31;;;;;;;11.73;4.00;;;15.50;95.20;;;;;;5025402;28;20132;-60
2021/10/16 11:40:59;;;;;;;12.77;3.90;;;15.60;95.40;;;;;;5027806;28;20049;-59
2021/10/16 11:43:27;;;;;;;10.82;3.63;;;15.70;95.00;;;;;;5027326;28;20088;-60
2021/10/16 11:45:55;;;;;;;9.95;3.45;;;15.90;95.10;;;;;;5028206;28;20089;-60
2021/10/16 11:48:23;;;;;;;11.60;3.28;;;16.10;95.10;;;;;;5027463;28;20115;-60
2021/10/16 11:50:52;;;;;;;15.35;4.68;;;16.20;94.20;;;;;;5025781;28;20076;-59
2021/10/16 11:53:24;;;;;;;9.52;3.67;;;16.30;94.50;;;;;;5026798;28;20041;-60
2021/10/16 11:55:53;;;;;;;9.70;4.15;;;16.30;94.30;;;;;;5009928;28;20586;-60
2021/10/16 11:58:22;;;;;;;9.55;3.83;;;16.40;94.00;;;;;;5021964;28;20099;-60
2021/10/16 12:00:50;;;;;;;9.48;3.05;;;16.40;93.90;;;;;;5027128;28;20053;-60
2021/10/16 12:03:19;;;;;;;11.73;3.47;;;16.50;93.70;;;;;;5026561;28;20046;-60
2021/10/16 12:05:49;;;;;;;8.85;3.83;;;16.60;94.00;;;;;;5027515;28;20500;-60
2021/10/16 12:08:19;;;;;;;8.38;4.13;;;16.60;93.90;;;;;;5026104;28;20492;-60
2021/10/16 12:10:56;;;;;;;9.27;3.67;;;16.60;93.80;;;;;;5027031;28;20088;-60
2021/10/16 12:13:38;;;;;;;8.23;3.75;;;16.80;93.60;;;;;;5025696;28;20107;-60
2021/10/16 12:16:19;;;;;;;9.35;3.85;;;17.00;92.10;;;;;;5027131;28;20225;-60
2021/10/16 12:18:59;;;;;;;10.18;4.03;;;17.20;93.00;;;;;;5025437;28;20339;-60
2021/10/16 12:21:27;;;;;;;9.23;3.80;;;17.30;92.50;;;;;;5026435;28;20709;-60
2021/10/16 12:23:54;;;;;;;9.77;4.20;;;17.40;92.30;;;;;;5023051;28;20093;-60
2021/10/16 12:26:23;;;;;;;13.55;4.38;;;17.60;92.40;;;;;;5023779;28;20046;-60
2021/10/16 12:28:50;;;;;;;9.40;4.15;;;17.70;91.40;;;;;;5024960;28;20080;-60
2021/10/16 12:31:18;;;;;;;9.55;3.72;;;17.80;91.80;;;;;;5026379;28;20091;-60
2021/10/16 12:34:08;;;;;;;10.05;3.83;;;17.80;91.10;;;;;;5026282;28;20431;-60
2021/10/16 12:36:37;;;;;;;9.43;3.50;;;17.70;91.00;;;;;;5028161;28;20080;-60
2021/10/16 12:39:06;;;;;;;11.65;5.07;;;17.70;91.70;;;;;;5025801;28;20559;-60
2021/10/16 12:41:40;;;;;;;9.55;4.28;;;17.60;91.70;;;;;;5024153;28;20103;-60
2021/10/16 12:44:18;;;;;;;8.18;3.70;;;17.70;92.20;;;;;;5022507;28;20643;-60
2021/10/16 12:46:50;;;;;;;8.10;3.85;;;17.50;91.10;;;;;;5023472;28;20077;-60
2021/10/16 12:49:27;;;;;;;5.32;3.95;;;17.40;91.90;;;;;;5022398;28;20157;-60
2021/10/16 12:51:54;;;;;;;8.15;4.85;;;17.30;91.30;;;;;;5025877;28;20501;-60
2021/10/16 12:54:31;;;;;;;9.77;4.22;;;17.20;91.30;;;;;;5024739;28;20073;-60